Logo AVAMET
Benvolgut visitant, si us plau, ingressa Recuperar contrasenya

Inforatge Altea poble

Dades diàries. Acumulats / Últims 30 dies disponibles

Data Temperatura (°C) Humitat rel. (%) Pressió rel. (hPa) Vent (km/h) Precipitació
Mínima Mitjana Màxima Amplitud
tèrmica
Mínima Mitjana Màxima Mínima Mitjana Màxima Predom. Mitjana Ràfega
màxima
Total
(mm)
Índex-n
Mínima Mitjana Màxima Mínima Mitjana Màxima n
0 a 1
P0 max
mm 5'
Dades mensuals acumulades fins l'últim dia disponible
09/2019 15,4 20,4 24,2 24,1 24,1 27,6 32,3 16,9 31 75 96 1.011 1.020 1.028   6,1 56,3 97,4
Dades anuals acumulades fins l'últim dia disponible
2019 4,9 15,2 27,3 19,0 12,3 22,9 36,2 31,3 19 68 97 997 1.020 1.037   5,5 69,3 271,2
Últims 30 dies disponibles
20-09-2019 21,2     24,1     27,3 6,1 68 80 86 1.017 1.019 1.021 SSE 5,5 25,9 0,0
19-09-2019 19,3     23,5     27,5 8,2 61 74 87 1.018 1.019 1.021 SSO 5,7 20,9 0,0
18-09-2019 20,6     24,0     27,4 6,8 72 81 92 1.016 1.017 1.019 SSO 3,9 16,7 0,0
17-09-2019 21,0     23,5     26,6 5,6 79 86 91 1.016 1.019 1.021 SSO 4,1 19,3 0,0
16-09-2019 21,6     25,0     29,6 8,0 69 82 92 1.019 1.020 1.022 SSO 3,2 19,3 0,0
15-09-2019 24,2     26,4     29,8 5,6 57 72 81 1.019 1.021 1.023 SSO 5,6 27,8 0,0
14-09-2019 18,2     24,0     26,3 8,1 65 74 95 1.021 1.024 1.027 S 8,7 51,9 19,4 0,61 8,80
13-09-2019 21,0     23,5     25,5 4,5 55 75 89 1.023 1.025 1.027 ESE 10,4 50,0 2,8 0,58 0,60
12-09-2019 19,0     22,9     25,2 6,2 56 77 96 1.021 1.025 1.028 E 13,6 56,3 49,8 0,76 6,30
11-09-2019 15,7     20,1     24,1 8,4 53 67 86 1.014 1.019 1.024 S 9,0 42,6 6,6 0,57 1,00
10-09-2019 15,4     22,6     28,1 12,7 31 63 86 1.011 1.013 1.016 SO 6,2 43,5 4,0 0,39 0,60
09-09-2019 18,9     23,9     28,2 9,3 59 73 82 1.015 1.018 1.021 SO 5,2 25,9 0,0
08-09-2019 19,6     23,1     26,9 7,3 61 74 85 1.019 1.020 1.022 SSO 5,2 16,7 0,0
07-09-2019 20,9     23,5     25,3 4,4 66 79 91 1.021 1.022 1.023 S 5,1 24,1 9,8 0,38 3,30
06-09-2019 21,6     24,3     27,8 6,2 58 75 84 1.020 1.021 1.022 S 5,9 27,8 0,0
05-09-2019 21,8     24,5     27,6 5,8 66 78 87 1.019 1.020 1.022 SSO 5,6 25,9 0,0
04-09-2019 22,8     25,8     29,9 7,1 55 77 89 1.019 1.021 1.023 S 4,2 24,1 0,0
03-09-2019 21,3     26,4     28,6 7,3 67 76 84 1.022 1.023 1.024 SSE 6,0 20,9 0,0
02-09-2019 22,2     24,6     28,2 6,0 66 80 90 1.017 1.020 1.023 SO 4,3 25,9 5,0 0,40
01-09-2019 22,1     26,8     32,3 10,2 44 66 84 1.015 1.017 1.018 SO 4,9 22,6 0,0
31-08-2019 22,0     25,9     31,0 9,0 54 67 80 1.017 1.018 1.021 SO 5,0 20,9 0,0
30-08-2019 22,3     25,7     29,1 6,8 59 71 78 1.021 1.022 1.023 SSO 5,4 20,9 0,0
29-08-2019 21,3     25,3     29,2 7,9 57 73 85 1.020 1.022 1.023 SSO 5,4 16,7 0,0
28-08-2019 19,9     24,3     27,7 7,8 65 75 85 1.019 1.020 1.021 SSO 5,5 19,3 0,0
27-08-2019 22,2     25,3     29,6 7,4 57 70 84 1.016 1.017 1.019 SO 5,5 29,6 5,0 0,58 2,40
26-08-2019 22,3     27,3     28,9 6,6 71 75 79 1.016 1.018 1.020 E 7,5 31,5 0,0
22-08-2019 21,1     24,5     29,2 8,1 52 69 77 1.021 1.022 1.023 SO 5,5 32,2 0,0
21-08-2019 22,7     25,3     28,6 5,9 56 78 97 1.020 1.022 1.023 ESE 8,1 29,6 21,4 0,48 5,00
20-08-2019 24,0     27,0     30,6 6,6 63 76 84 1.017 1.019 1.022 SSE 6,5 31,5 0,0
19-08-2019 22,1     26,8     31,8 9,7 65 76 90 1.014 1.016 1.017 S 6,9 33,9 0,0
Últims 13 mesos disponibles
08/2019 19,9 22,8 24,9 26,5 27,7 30,2 36,2 16,3 62 73 83 1.013 1.018 1.022 SSO 5,7 33,9 26,4
07/2019 20,9 23,1 27,3 26,7 27,8 30,2 34,3 13,4 45 67 82 1.008 1.016 1.023 S 5,6 37,0 1,6
06/2019 15,1 18,6 26,6 22,5 22,6 26,6 33,8 18,7 46 68 82 1.011 1.018 1.025 S 5,5 35,4 0,6
05/2019 10,8 14,8 19,2 18,6 18,7 22,4 28,2 17,4 54 70 84 1.008 1.018 1.028 SSO 5,5 50,0 9,6
04/2019 9,8 12,3 16,4 15,7 16,1 19,3 26,1 16,3 47 70 87 1.002 1.015 1.028 S 5,7 68,5 99,8
03/2019 7,9 10,0 12,6 14,2 14,4 18,4 21,9 14,0 48 64 83 1.015 1.025 1.033 SSO 5,3 51,9 28,2
02/2019 6,3 8,1 12,7 12,4 13,4 16,8 20,1 13,8 31 63 78 999 1.027 1.036 SO 5,5 69,3 0,2
01/2019 4,9 8,2 13,4 11,9 12,3 16,3 21,8 16,9 37 61 80 1.006 1.021 1.033 OSO 5,3 58,0 7,4
12/2018 7,1 9,5 12,2 13,3 14,9 18,0 21,5 14,4 54 72 84 1.012 1.027 1.034 SO 4,4 38,9 18,6
11/2018 7,3 12,4 17,0 15,7 15,7 19,7 23,5 16,2 50 68 86 1.002 1.018 1.024 OSO 4,5 48,3 86,6
10/2018 10,2 16,1 19,3 19,6 16,9 23,8 27,1 16,9 39 69 80 1.001 1.017 1.028 SO 4,9 51,9 73,4
09/2018 16,8 21,7 24,8 25,0 25,0 28,6 30,9 14,1 66 74 83 1.015 1.021 1.030 5,1 37,0 50,8
08/2018 21,1 23,3 26,9 26,5 27,1 29,8 31,9 10,8 63 74 83 1.015 1.019 1.023 5,3 33,9 30,6
Tots els anys disponibles
Temperatura (°C)
Humitat relativa (%)
Velocitat del vent i ràfega màxima (km/h)
Direcció del vent (°)
Pressió (hPa)
Precipitació (mm)
Nota sobre les dades: s'avisa a l'usuari de la provisionalitat i no oficialitat d'aquestes dades
Logo AVAMET blanc
Web allotjada a Sollutia
Llicència de Creative CommonsLa web d'AVAMET i els seus continguts estan subjectes a una llicència de
Reconeixement - No Comercial - Compartir igual
Properes estacions: Altea - Club Nàutic d'Altea (Soci),    - - - - -      Últimes estacions: Llíria - Bodegas del Campo (Soci), La Pobla Tornesa (Soci), Quartell (Soci), Alzira - Est (Soci/Inforatge), San Miguel de las Salinas (MeteOrihuela), Segorbe (Inforatge), Alcalà de Xivert - Alcossebre (Inforatge), Moixent - la Foia (Soci), Callosa d'en Sarrià - Centre (Soci) - - -